Tiempo atmosférico en la estación meteorológica de Castellfort, Castelló/Castellón (1181 m.)



Fecha
DESCASC
Temp. máxima en grados centígrados (hora)
DESCASC
Temp. mínima en grados centígrados (hora)
DESCASC
Temp. media en grados centígrados
DESCASC
Racha de viento máxima en m/sg (hora)
DESCASC
Velocidad máxima media en intervalos de 10 minutos(hora)
DESCASC
Precipitaciones diarias en mm
DESCASC
Precipitaciones de 00:00 a 06:00 en mm
DESCASC
Precipitaciones de 06:00 a 12:00 en mm
DESCASC
Precipitaciones de 12:00 a 18:00 en mm
DESCASC
Precipitaciones de 18:00 a 24:00 en mm
DESCASC
25-04-2019 13.1 (17:00) 6.1 (23:59) 9.6 -- (--) -- (--) 0 0 0 0 0
24-04-2019 10.7 (17:20) 2.8 (07:20) 6.7 -- (--) -- (--) 0 0 0 0 0
23-04-2019 12.6 (13:10) 5.2 (23:59) 8.9 -- (--) -- (--) 0 0 0 0 0
22-04-2019 6.7 (22:30) 4.5 (00:00) 5.6 -- (--) -- (--) 0.1 0 0 0.1 0
21-04-2019 5.2 (22:40) 3.4 (00:00) 4.3 -- (--) -- (--) 0.2 0.1 0 0 0.1
20-04-2019 8.8 (13:10) 3.4 (00:00) 6.1 -- (--) -- (--) 0.2 0.1 0.1 0 0
19-04-2019 8.1 (17:40) 5.8 (00:00) 7 -- (--) -- (--) 0.4 0.1 0.1 0.1 0.1
18-04-2019 7.3 (15:50) 5.3 (00:00) 6.3 -- (--) -- (--) 0.2 0 0 0 0.2
17-04-2019 13.4 (15:50) 4 (00:00) 8.7 -- (--) -- (--) 0 0 0 0 0
16-04-2019 13.7 (14:50) 5.7 (00:00) 9.7 -- (--) -- (--) 0 0 0 0 0
15-04-2019 13.7 (14:50) 6.2 (00:00) 9.9 -- (--) -- (--) 0 0 0 0 0
14-04-2019 18.6 (16:50) 9.4 (00:00) 14 -- (--) -- (--) 0 0 0 0 0
13-04-2019 15 (17:40) 4.1 (00:00) 9.5 -- (--) -- (--) 0 0 0 0 0
12-04-2019 11.2 (16:50) 2.1 (00:00) 6.6 -- (--) -- (--) 0 0 0 0 0
11-04-2019 8.7 (16:50) 2.1 (00:00) 5.4 -- (--) -- (--) 0.2 0.1 0 0 0.1
10-04-2019 7.9 (13:30) 2.2 (00:00) 5.1 -- (--) -- (--) 0.1 0.1 0 0 0
09-04-2019 11.2 (15:50) 3.5 (00:00) 7.3 -- (--) -- (--) 0.1 0.1 0 0 0
08-04-2019 12.8 (16:40) 4.8 (00:00) 8.8 -- (--) -- (--) 0.1 0 0 0 0.1
07-04-2019 8.1 (19:00) 1.4 (08:40) 4.8 -- (--) -- (--) 0 0 0 0 0
06-04-2019 7.6 (16:20) 1.5 (04:00) 4.5 -- (--) -- (--) 0.1 0 0 0.1 0
05-04-2019 9 (15:00) 2.1 (02:50) 5.5 -- (--) -- (--) 0.2 0.1 0 0 0.1

Gráficas

Temp. máximas Temp. mínimas Temp. medias Precipitaciones Rachas de viento máximas Velocidades máximas media en intervalos de 10 minutos

Datos horarios

Fecha y hora oficial Temperatura (ºC) Velocidad del viento (km/h) Dirección del viento Racha (km/h) Dirección de racha Precipitación (mm) Presión (hPa) Tendencia (hPa) Humedad (%)
2019-04-25 23:00:00 6.8 -- -- -- -- 0 -- -- 46
2019-04-25 22:00:00 7.3 -- -- -- -- 0 -- -- 43
2019-04-25 21:00:00 7.9 -- -- -- -- 0 -- -- 42
2019-04-25 20:00:00 9.1 -- -- -- -- 0 -- -- 40
2019-04-25 19:00:00 8.9 -- -- -- -- 0 -- -- 42
2019-04-25 18:00:00 11 -- -- -- -- 0 -- -- 27
2019-04-25 17:00:00 13.1 -- -- -- -- 0 -- -- 28
2019-04-25 16:00:00 12.1 -- -- -- -- 0 -- -- 26
2019-04-25 15:00:00 12.1 -- -- -- -- 0 -- -- 28
2019-04-25 14:00:00 11 -- -- -- -- 0 -- -- 37
2019-04-25 13:00:00 11.8 -- -- -- -- 0 -- -- 40
2019-04-25 12:00:00 10.9 -- -- -- -- 0 -- -- 47
2019-04-25 11:00:00 10 -- -- -- -- 0 -- -- 52
2019-04-25 10:00:00 9.2 -- -- -- -- 0 -- -- 60
2019-04-25 09:00:00 8.9 -- -- -- -- 0 -- -- 66
2019-04-25 08:00:00 8.5 -- -- -- -- 0 -- -- 76
2019-04-25 07:00:00 9 -- -- -- -- 0 -- -- 70
2019-04-25 06:00:00 7.4 -- -- -- -- 0 -- -- 81
2019-04-25 05:00:00 8 -- -- -- -- 0 -- -- 76
2019-04-25 04:00:00 8.4 -- -- -- -- 0 -- -- 74
2019-04-25 03:00:00 8 -- -- -- -- 0 -- -- 79
2019-04-25 02:00:00 8 -- -- -- -- 0 -- -- 77
2019-04-25 01:00:00 7.9 -- -- -- -- 0 -- -- 76
2019-04-25 00:00:00 8.4 -- -- -- -- 0 -- -- 70
2019-04-24 23:00:00 7.6 -- -- -- -- 0 -- -- 70
2019-04-24 22:00:00 7.4 -- -- -- -- 0 -- -- 69
2019-04-24 21:00:00 7.4 -- -- -- -- 0 -- -- 61
2019-04-24 20:00:00 8.8 -- -- -- -- 0 -- -- 57
2019-04-24 19:00:00 9 -- -- -- -- 0 -- -- 56
2019-04-24 18:00:00 9.4 -- -- -- -- 0 -- -- 51
2019-04-24 17:00:00 10.6 -- -- -- -- 0 -- -- 49
2019-04-24 16:00:00 9.5 -- -- -- -- 0 -- -- 49
2019-04-24 15:00:00 8.6 -- -- -- -- 0 -- -- 46
2019-04-24 14:00:00 8.5 -- -- -- -- 0 -- -- 43
2019-04-24 13:00:00 9.5 -- -- -- -- 0 -- -- 40
2019-04-24 12:00:00 7.7 -- -- -- -- 0 -- -- 41
2019-04-24 11:00:00 4.9 -- -- -- -- 0 -- -- 49
2019-04-24 10:00:00 4.9 -- -- -- -- 0 -- -- 48
2019-04-24 09:00:00 5 -- -- -- -- 0 -- -- 48
2019-04-24 08:00:00 3.3 -- -- -- -- 0 -- -- 53
2019-04-24 07:00:00 3 -- -- -- -- 0 -- -- 53
2019-04-24 06:00:00 3.7 -- -- -- -- 0 -- -- 51
2019-04-24 05:00:00 3.7 -- -- -- -- 0 -- -- 50
2019-04-24 04:00:00 4.3 -- -- -- -- 0 -- -- 49
2019-04-24 03:00:00 4 -- -- -- -- 0 -- -- 49
2019-04-24 02:00:00 4.3 -- -- -- -- 0 -- -- 48
2019-04-24 01:00:00 4.5 -- -- -- -- 0 -- -- 49
2019-04-24 00:00:00 5.3 -- -- -- -- 0 -- -- 46
2019-04-23 23:00:00 5.8 -- -- -- -- 0 -- -- 47
2019-04-23 22:00:00 6.2 -- -- -- -- 0 -- -- 46
2019-04-23 21:00:00 7.4 -- -- -- -- 0 -- -- 46
2019-04-23 20:00:00 8.3 -- -- -- -- 0 -- -- 45
2019-04-23 19:00:00 9.5 -- -- -- -- 0 -- -- 43
2019-04-23 18:00:00 9.1 -- -- -- -- 0 -- -- 45
2019-04-23 17:00:00 9.5 -- -- -- -- 0 -- -- 48
2019-04-23 16:00:00 11.5 -- -- -- -- 0 -- -- 45
2019-04-23 15:00:00 11.7 -- -- -- -- 0 -- -- 45
2019-04-23 14:00:00 11.6 -- -- -- -- 0 -- -- 44
2019-04-23 13:00:00 11.7 -- -- -- -- 0 -- -- 45
2019-04-23 12:00:00 10.8 -- -- -- -- 0 -- -- 48
2019-04-23 11:00:00 10.3 -- -- -- -- 0 -- -- 51
2019-04-23 10:00:00 10 -- -- -- -- 0 -- -- 47
2019-04-23 09:00:00 8.9 -- -- -- -- 0 -- -- 51
2019-04-23 08:00:00 8.5 -- -- -- -- 0 -- -- 58
2019-04-23 07:00:00 8.3 -- -- -- -- 0 -- -- 60
2019-04-23 06:00:00 8.2 -- -- -- -- 0 -- -- 60
2019-04-23 05:00:00 7.6 -- -- -- -- 0 -- -- 67
2019-04-23 04:00:00 7.3 -- -- -- -- 0 -- -- 77
2019-04-23 03:00:00 6.8 -- -- -- -- 0 -- -- 88
2019-04-23 02:00:00 6.7 -- -- -- -- 0 -- -- 88
2019-04-23 01:00:00 6.6 -- -- -- -- 0 -- -- 88
2019-04-23 00:00:00 6.3 -- -- -- -- 0 -- -- 88
2019-04-22 23:00:00 6.5 -- -- -- -- 0 -- -- 88
2019-04-22 22:00:00 6.4 -- -- -- -- 0 -- -- 88
2019-04-22 21:00:00 6 -- -- -- -- 0 -- -- 88
2019-04-22 20:00:00 6.1 -- -- -- -- 0 -- -- 88
2019-04-22 19:00:00 6.2 -- -- -- -- 0 -- -- 88
2019-04-22 18:00:00 6 -- -- -- -- 0.1 -- -- 88
2019-04-22 17:00:00 5.9 -- -- -- -- 0 -- -- 88
2019-04-22 16:00:00 6 -- -- -- -- 0 -- -- 88
2019-04-22 15:00:00 5.8 -- -- -- -- 0 -- -- 88
2019-04-22 14:00:00 5.2 -- -- -- -- 0 -- -- 88
2019-04-22 13:00:00 5 -- -- -- -- 0 -- -- 88
2019-04-22 12:00:00 4.9 -- -- -- -- 0 -- -- 88
2019-04-22 11:00:00 4.6 -- -- -- -- 0 -- -- 88
2019-04-22 10:00:00 4.6 -- -- -- -- 0 -- -- 88
2019-04-22 09:00:00 4.5 -- -- -- -- 0 -- -- 88
2019-04-22 08:00:00 4.6 -- -- -- -- 0 -- -- 88
2019-04-22 07:00:00 4.8 -- -- -- -- 0 -- -- 88
2019-04-22 06:00:00 4.8 -- -- -- -- 0 -- -- 88
2019-04-22 05:00:00 5 -- -- -- -- 0 -- -- 88
2019-04-22 04:00:00 5.1 -- -- -- -- 0 -- -- 88
2019-04-22 03:00:00 5.2 -- -- -- -- 0 -- -- 88
2019-04-22 02:00:00 5.1 -- -- -- -- 0 -- -- 88
2019-04-22 01:00:00 5.2 -- -- -- -- 0 -- -- 88
2019-04-22 00:00:00 5.1 -- -- -- -- 0 -- -- 88
2019-04-21 23:00:00 5.1 -- -- -- -- 0 -- -- 88
2019-04-21 22:00:00 5 -- -- -- -- 0 -- -- 88
2019-04-21 21:00:00 5.1 -- -- -- -- 0 -- -- 88
2019-04-21 20:00:00 5 -- -- -- -- 0 -- -- 88
2019-04-21 19:00:00 4.9 -- -- -- -- 0.1 -- -- 88
2019-04-21 18:00:00 5 -- -- -- -- 0 -- -- 88
2019-04-21 17:00:00 4.8 -- -- -- -- 0 -- -- 88
2019-04-21 16:00:00 4.7 -- -- -- -- 0 -- -- 88
2019-04-21 15:00:00 4.6 -- -- -- -- 0 -- -- 88
2019-04-21 14:00:00 4.7 -- -- -- -- 0 -- -- 88
2019-04-21 13:00:00 4.6 -- -- -- -- 0 -- -- 88
2019-04-21 12:00:00 4.3 -- -- -- -- 0 -- -- 88
2019-04-21 11:00:00 4.1 -- -- -- -- 0 -- -- 88
2019-04-21 10:00:00 4 -- -- -- -- 0 -- -- 88
2019-04-21 09:00:00 3.8 -- -- -- -- 0 -- -- 88
2019-04-21 08:00:00 3.6 -- -- -- -- 0 -- -- 88
2019-04-21 07:00:00 3.4 -- -- -- -- 0 -- -- 88
2019-04-21 06:00:00 3.4 -- -- -- -- 0 -- -- 88
2019-04-21 05:00:00 3.5 -- -- -- -- 0 -- -- 88
2019-04-21 04:00:00 3.7 -- -- -- -- 0.1 -- -- 88
2019-04-21 03:00:00 3.7 -- -- -- -- 0 -- -- 88
2019-04-21 02:00:00 3.9 -- -- -- -- 0 -- -- 88
2019-04-21 01:00:00 3.8 -- -- -- -- 0 -- -- 88
2019-04-21 00:00:00 3.7 -- -- -- -- 0 -- -- 88
2019-04-20 23:00:00 3.5 -- -- -- -- 0 -- -- 88
2019-04-20 22:00:00 3.8 -- -- -- -- 0 -- -- 87
2019-04-20 21:00:00 3.9 -- -- -- -- 0 -- -- 84
2019-04-20 20:00:00 4.7 -- -- -- -- 0 -- -- 76
2019-04-20 19:00:00 5.2 -- -- -- -- 0 -- -- 73
2019-04-20 18:00:00 5.5 -- -- -- -- 0 -- -- 71
2019-04-20 17:00:00 5.7 -- -- -- -- 0 -- -- 69
2019-04-20 16:00:00 6.3 -- -- -- -- 0 -- -- 63
2019-04-20 15:00:00 7.9 -- -- -- -- 0 -- -- 49
2019-04-20 14:00:00 8.5 -- -- -- -- 0 -- -- 44
2019-04-20 13:00:00 8.7 -- -- -- -- 0 -- -- 42
2019-04-20 12:00:00 8.3 -- -- -- -- 0.1 -- -- 46
2019-04-20 11:00:00 8.3 -- -- -- -- 0 -- -- 53
2019-04-20 10:00:00 7.8 -- -- -- -- 0 -- -- 61
2019-04-20 09:00:00 7.2 -- -- -- -- 0 -- -- 66
2019-04-20 08:00:00 5.9 -- -- -- -- 0 -- -- 70
2019-04-20 07:00:00 6 -- -- -- -- 0 -- -- 70
2019-04-20 06:00:00 6.6 -- -- -- -- 0 -- -- 69
2019-04-20 05:00:00 7.1 -- -- -- -- 0 -- -- 68
2019-04-20 04:00:00 7.2 -- -- -- -- 0 -- -- 66
2019-04-20 03:00:00 7 -- -- -- -- 0.1 -- -- 65
2019-04-20 02:00:00 7.1 -- -- -- -- 0 -- -- 64
2019-04-20 01:00:00 7.3 -- -- -- -- 0 -- -- 68
2019-04-20 00:00:00 7.1 -- -- -- -- 0 -- -- 74
2019-04-19 23:00:00 6.8 -- -- -- -- 0 -- -- 77
2019-04-19 22:00:00 6.7 -- -- -- -- 0 -- -- 73
2019-04-19 21:00:00 6.7 -- -- -- -- 0 -- -- 73
2019-04-19 20:00:00 6.8 -- -- -- -- 0.1 -- -- 74
2019-04-19 19:00:00 7.4 -- -- -- -- 0 -- -- 68
2019-04-19 18:00:00 7.5 -- -- -- -- 0 -- -- 74
2019-04-19 17:00:00 7.3 -- -- -- -- 0 -- -- 80
2019-04-19 16:00:00 6.9 -- -- -- -- 0 -- -- 81
2019-04-19 15:00:00 6.5 -- -- -- -- 0.1 -- -- 88
2019-04-19 14:00:00 5.9 -- -- -- -- 0 -- -- 88
2019-04-19 13:00:00 6.2 -- -- -- -- 0 -- -- 88
2019-04-19 12:00:00 6.6 -- -- -- -- 0 -- -- 88
2019-04-19 11:00:00 6.8 -- -- -- -- 0 -- -- 88
2019-04-19 10:00:00 6.9 -- -- -- -- 0.1 -- -- 88
2019-04-19 09:00:00 7.1 -- -- -- -- 0 -- -- 88
2019-04-19 08:00:00 7.2 -- -- -- -- 0 -- -- 88
2019-04-19 07:00:00 7.2 -- -- -- -- 0 -- -- 88
2019-04-19 06:00:00 7 -- -- -- -- 0.1 -- -- 88
2019-04-19 05:00:00 7 -- -- -- -- 0 -- -- 88
2019-04-19 04:00:00 6.9 -- -- -- -- 0 -- -- 88
2019-04-19 03:00:00 6.8 -- -- -- -- 0 -- -- 88
2019-04-19 02:00:00 7 -- -- -- -- 0 -- -- 88
2019-04-19 01:00:00 6.9 -- -- -- -- 0 -- -- 88
2019-04-19 00:00:00 6.9 -- -- -- -- 0.1 -- -- 88
2019-04-18 23:00:00 6.8 -- -- -- -- 0 -- -- 88
2019-04-18 22:00:00 6.8 -- -- -- -- 0.1 -- -- 88
2019-04-18 21:00:00 6.9 -- -- -- -- 0 -- -- 88
2019-04-18 20:00:00 6.7 -- -- -- -- 0 -- -- 88
2019-04-18 19:00:00 6.6 -- -- -- -- 0 -- -- 88
2019-04-18 18:00:00 6.7 -- -- -- -- 0 -- -- 88
2019-04-18 17:00:00 6.6 -- -- -- -- 0 -- -- 88
2019-04-18 16:00:00 7 -- -- -- -- 0 -- -- 77
2019-04-18 15:00:00 6.5 -- -- -- -- 0 -- -- 81
2019-04-18 14:00:00 6.2 -- -- -- -- 0 -- -- 88
2019-04-18 13:00:00 6.2 -- -- -- -- 0 -- -- 88
2019-04-18 12:00:00 6.5 -- -- -- -- 0 -- -- 84
2019-04-18 11:00:00 5.6 -- -- -- -- 0 -- -- 88
2019-04-18 10:00:00 5.6 -- -- -- -- 0 -- -- 88
2019-04-18 09:00:00 6 -- -- -- -- 0 -- -- 88
2019-04-18 08:00:00 6.1 -- -- -- -- 0 -- -- 88
2019-04-18 07:00:00 6.4 -- -- -- -- 0 -- -- 87
2019-04-18 06:00:00 6.3 -- -- -- -- 0 -- -- 80
2019-04-18 05:00:00 6.1 -- -- -- -- 0 -- -- 77
2019-04-18 04:00:00 5.9 -- -- -- -- 0 -- -- 73
2019-04-18 03:00:00 6.7 -- -- -- -- 0 -- -- 63
2019-04-18 02:00:00 6.7 -- -- -- -- 0 -- -- 57
2019-04-18 01:00:00 6.1 -- -- -- -- 0 -- -- 75
2019-04-18 00:00:00 6 -- -- -- -- 0 -- -- 81
2019-04-17 23:00:00 6.3 -- -- -- -- 0 -- -- 88
2019-04-17 22:00:00 7.1 -- -- -- -- 0 -- -- 87
2019-04-17 21:00:00 7.6 -- -- -- -- 0 -- -- 85
2019-04-17 20:00:00 8.7 -- -- -- -- 0 -- -- 80
2019-04-17 19:00:00 10 -- -- -- -- 0 -- -- 72
2019-04-17 18:00:00 10.9 -- -- -- -- 0 -- -- 63
2019-04-17 17:00:00 12.8 -- -- -- -- 0 -- -- 52
2019-04-17 16:00:00 13.2 -- -- -- -- 0 -- -- 48
2019-04-17 15:00:00 13 -- -- -- -- 0 -- -- 48
2019-04-17 14:00:00 12.1 -- -- -- -- 0 -- -- 52
2019-04-17 13:00:00 11.4 -- -- -- -- 0 -- -- 56
2019-04-17 12:00:00 10.7 -- -- -- -- 0 -- -- 61
2019-04-17 11:00:00 8.2 -- -- -- -- 0 -- -- 73
2019-04-17 10:00:00 6 -- -- -- -- 0 -- -- 79
2019-04-17 09:00:00 6.8 -- -- -- -- -- -- -- 72
2019-04-17 08:00:00 5.9 -- -- -- -- 0 -- -- 78
2019-04-17 07:00:00 4.5 -- -- -- -- 0 -- -- 79
2019-04-17 06:00:00 5.3 -- -- -- -- 0 -- -- 76
2019-04-17 05:00:00 5.3 -- -- -- -- 0 -- -- 74
2019-04-17 04:00:00 5 -- -- -- -- 0 -- -- 71
2019-04-17 03:00:00 4.3 -- -- -- -- 0 -- -- 74
2019-04-17 02:00:00 4.4 -- -- -- -- 0 -- -- 74
2019-04-17 01:00:00 4.9 -- -- -- -- 0 -- -- 83
2019-04-17 00:00:00 6.8 -- -- -- -- 0 -- -- 85
2019-04-16 23:00:00 6.9 -- -- -- -- 0 -- -- 80
2019-04-16 22:00:00 7.3 -- -- -- -- 0 -- -- 80
2019-04-16 21:00:00 7.5 -- -- -- -- 0 -- -- 79
2019-04-16 20:00:00 8.2 -- -- -- -- 0 -- -- 77
2019-04-16 19:00:00 8.6 -- -- -- -- 0 -- -- 78
2019-04-16 18:00:00 9 -- -- -- -- 0 -- -- 75
2019-04-16 17:00:00 11 -- -- -- -- 0 -- -- 63
2019-04-16 16:00:00 13.6 -- -- -- -- 0 -- -- 52
2019-04-16 15:00:00 12.9 -- -- -- -- 0 -- -- 42
2019-04-16 14:00:00 10.5 -- -- -- -- 0 -- -- 49
2019-04-16 13:00:00 10.6 -- -- -- -- 0 -- -- 51
2019-04-16 12:00:00 10.1 -- -- -- -- 0 -- -- 54
2019-04-16 11:00:00 8.5 -- -- -- -- 0 -- -- 72
2019-04-16 10:00:00 6.3 -- -- -- -- 0 -- -- 88
2019-04-16 09:00:00 6.1 -- -- -- -- 0 -- -- 88
2019-04-16 08:00:00 6 -- -- -- -- 0 -- -- 89
2019-04-16 07:00:00 6.1 -- -- -- -- 0 -- -- 89
2019-04-16 06:00:00 6.1 -- -- -- -- 0 -- -- 89
2019-04-16 05:00:00 6.1 -- -- -- -- 0 -- -- 88
2019-04-16 04:00:00 7.2 -- -- -- -- 0 -- -- 77
2019-04-16 03:00:00 10.6 -- -- -- -- 0 -- -- 64
2019-04-16 02:00:00 10.9 -- -- -- -- 0 -- -- 61
2019-04-16 01:00:00 9.6 -- -- -- -- 0 -- -- 61
2019-04-16 00:00:00 12 -- -- -- -- 0 -- -- 57
2019-04-15 23:00:00 10.6 -- -- -- -- 0 -- -- 66
2019-04-15 22:00:00 6.4 -- -- -- -- 0 -- -- 84
2019-04-15 21:00:00 7.2 -- -- -- -- 0 -- -- 75
2019-04-15 20:00:00 9 -- -- -- -- 0 -- -- 64
2019-04-15 19:00:00 11.1 -- -- -- -- 0 -- -- 56
2019-04-15 18:00:00 10.3 -- -- -- -- 0 -- -- 59
2019-04-15 17:00:00 10.3 -- -- -- -- 0 -- -- 53
2019-04-15 16:00:00 12.1 -- -- -- -- 0 -- -- 51
2019-04-15 15:00:00 13.5 -- -- -- -- 0 -- -- 50
2019-04-15 14:00:00 12.8 -- -- -- -- 0 -- -- 57
2019-04-15 13:00:00 12.1 -- -- -- -- 0 -- -- 54
2019-04-15 12:00:00 11.7 -- -- -- -- 0 -- -- 56
2019-04-15 11:00:00 9.8 -- -- -- -- 0 -- -- 65
2019-04-15 10:00:00 9.7 -- -- -- -- 0 -- -- 66
2019-04-15 09:00:00 8.7 -- -- -- -- 0 -- -- 74
2019-04-15 08:00:00 8.2 -- -- -- -- 0 -- -- 75
2019-04-15 07:00:00 10.4 -- -- -- -- 0 -- -- 67
2019-04-15 06:00:00 10.4 -- -- -- -- 0 -- -- 66
2019-04-15 05:00:00 11.4 -- -- -- -- 0 -- -- 61
2019-04-15 04:00:00 11.4 -- -- -- -- 0 -- -- 60
2019-04-15 03:00:00 11.7 -- -- -- -- 0 -- -- 56
2019-04-15 02:00:00 12.4 -- -- -- -- 0 -- -- 54
2019-04-15 01:00:00 12.8 -- -- -- -- 0 -- -- 53
2019-04-15 00:00:00 13 -- -- -- -- 0 -- -- 51
2019-04-14 23:00:00 13.2 -- -- -- -- 0 -- -- 49
2019-04-14 22:00:00 13.7 -- -- -- -- 0 -- -- 47
2019-04-14 21:00:00 14.4 -- -- -- -- 0 -- -- 45
2019-04-14 20:00:00 15.6 -- -- -- -- 0 -- -- 41
2019-04-14 19:00:00 16.7 -- -- -- -- 0 -- -- 41
2019-04-14 18:00:00 17.1 -- -- -- -- 0 -- -- 39
2019-04-14 17:00:00 18.3 -- -- -- -- 0 -- -- 38
2019-04-14 16:00:00 18.1 -- -- -- -- 0 -- -- 39
2019-04-14 15:00:00 17.7 -- -- -- -- 0 -- -- 41
2019-04-14 14:00:00 16.2 -- -- -- -- 0 -- -- 43
2019-04-14 13:00:00 14.9 -- -- -- -- 0 -- -- 46
2019-04-14 12:00:00 13 -- -- -- -- 0 -- -- 48
2019-04-14 11:00:00 11.9 -- -- -- -- 0 -- -- 49
2019-04-14 10:00:00 11.2 -- -- -- -- 0 -- -- 40
2019-04-14 09:00:00 11.3 -- -- -- -- 0 -- -- 31
2019-04-14 08:00:00 11 -- -- -- -- 0 -- -- 31
2019-04-14 07:00:00 10.6 -- -- -- -- 0 -- -- 29
2019-04-14 06:00:00 10.4 -- -- -- -- 0 -- -- 21
2019-04-14 05:00:00 10 -- -- -- -- 0 -- -- 21
2019-04-14 04:00:00 9.7 -- -- -- -- 0 -- -- 21
2019-04-14 03:00:00 9.9 -- -- -- -- 0 -- -- 19
2019-04-14 02:00:00 9.8 -- -- -- -- 0 -- -- 18
2019-04-14 01:00:00 10.9 -- -- -- -- 0 -- -- 17
2019-04-14 00:00:00 11.2 -- -- -- -- 0 -- -- 21
2019-04-13 23:00:00 9.5 -- -- -- -- 0 -- -- 22
2019-04-13 22:00:00 11.3 -- -- -- -- 0 -- -- 19
2019-04-13 21:00:00 12.1 -- -- -- -- 0 -- -- 18
2019-04-13 20:00:00 13.3 -- -- -- -- 0 -- -- 17
2019-04-13 19:00:00 13.9 -- -- -- -- 0 -- -- 17
2019-04-13 18:00:00 15 -- -- -- -- 0 -- -- 17
2019-04-13 17:00:00 14.7 -- -- -- -- 0 -- -- 17
2019-04-13 16:00:00 14.1 -- -- -- -- 0 -- -- 19
2019-04-13 15:00:00 13.5 -- -- -- -- 0 -- -- 20
2019-04-13 14:00:00 12.5 -- -- -- -- 0 -- -- 23
2019-04-13 13:00:00 11.3 -- -- -- -- 0 -- -- 31
2019-04-13 12:00:00 10 -- -- -- -- 0 -- -- 36
2019-04-13 11:00:00 8 -- -- -- -- 0 -- -- 40
2019-04-13 10:00:00 6.6 -- -- -- -- 0 -- -- 41
2019-04-13 09:00:00 6.1 -- -- -- -- 0 -- -- 41
2019-04-13 08:00:00 4.6 -- -- -- -- 0 -- -- 46
2019-04-13 07:00:00 4.3 -- -- -- -- 0 -- -- 50
2019-04-13 06:00:00 4.3 -- -- -- -- 0 -- -- 51
2019-04-13 05:00:00 4.4 -- -- -- -- 0 -- -- 51
2019-04-13 04:00:00 4.7 -- -- -- -- 0 -- -- 52
2019-04-13 03:00:00 4.9 -- -- -- -- 0 -- -- 53
2019-04-13 02:00:00 5.2 -- -- -- -- 0 -- -- 51
2019-04-13 01:00:00 5.5 -- -- -- -- 0 -- -- 51
2019-04-13 00:00:00 6 -- -- -- -- 0 -- -- 49
2019-04-12 23:00:00 6.8 -- -- -- -- 0 -- -- 46
2019-04-12 22:00:00 7.5 -- -- -- -- 0 -- -- 42
2019-04-12 21:00:00 8.2 -- -- -- -- 0 -- -- 42
2019-04-12 20:00:00 9.5 -- -- -- -- 0 -- -- 39
2019-04-12 19:00:00 10.2 -- -- -- -- 0 -- -- 38
2019-04-12 18:00:00 10.8 -- -- -- -- 0 -- -- 38
2019-04-12 17:00:00 10.6 -- -- -- -- 0 -- -- 40
2019-04-12 16:00:00 10.8 -- -- -- -- 0 -- -- 41
2019-04-12 15:00:00 9.9 -- -- -- -- 0 -- -- 46
2019-04-12 14:00:00 8.9 -- -- -- -- 0 -- -- 49
2019-04-12 13:00:00 7.9 -- -- -- -- 0 -- -- 55
2019-04-12 12:00:00 6.8 -- -- -- -- 0 -- -- 59
2019-04-12 11:00:00 5.7 -- -- -- -- 0 -- -- 65
2019-04-12 10:00:00 4.6 -- -- -- -- 0 -- -- 71
2019-04-12 09:00:00 3.7 -- -- -- -- 0 -- -- 77
2019-04-12 08:00:00 2.4 -- -- -- -- 0 -- -- 81
2019-04-12 07:00:00 2.6 -- -- -- -- 0 -- -- 80
2019-04-12 06:00:00 2.7 -- -- -- -- 0 -- -- 79
2019-04-12 05:00:00 2.7 -- -- -- -- 0 -- -- 78
2019-04-12 04:00:00 2.5 -- -- -- -- 0 -- -- 77
2019-04-12 03:00:00 2.4 -- -- -- -- 0 -- -- 74
2019-04-12 02:00:00 2.6 -- -- -- -- 0 -- -- 74
2019-04-12 01:00:00 3.1 -- -- -- -- 0 -- -- 75
2019-04-12 00:00:00 3.6 -- -- -- -- 0 -- -- 74
2019-04-11 23:00:00 4.2 -- -- -- -- 0 -- -- 71
2019-04-11 22:00:00 4.6 -- -- -- -- 0 -- -- 69
2019-04-11 21:00:00 5.1 -- -- -- -- 0.1 -- -- 62
2019-04-11 20:00:00 6 -- -- -- -- 0 -- -- 55
2019-04-11 19:00:00 8.2 -- -- -- -- 0 -- -- 47
2019-04-11 18:00:00 8.5 -- -- -- -- 0 -- -- 46
2019-04-11 17:00:00 8.4 -- -- -- -- 0 -- -- 45
2019-04-11 16:00:00 7.9 -- -- -- -- 0 -- -- 48
2019-04-11 15:00:00 7.3 -- -- -- -- 0 -- -- 48
2019-04-11 14:00:00 6.8 -- -- -- -- 0 -- -- 49
2019-04-11 13:00:00 7.3 -- -- -- -- 0 -- -- 52
2019-04-11 12:00:00 5.3 -- -- -- -- 0 -- -- 60
2019-04-11 11:00:00 4.7 -- -- -- -- 0 -- -- 66
2019-04-11 10:00:00 3.3 -- -- -- -- 0 -- -- 74
2019-04-11 09:00:00 3.1 -- -- -- -- 0 -- -- 77
2019-04-11 08:00:00 2.2 -- -- -- -- 0 -- -- 81
2019-04-11 07:00:00 2.3 -- -- -- -- 0 -- -- 81
2019-04-11 06:00:00 2.6 -- -- -- -- 0 -- -- 81
2019-04-11 05:00:00 2.8 -- -- -- -- 0.1 -- -- 82
2019-04-11 04:00:00 2.8 -- -- -- -- 0 -- -- 82
2019-04-11 03:00:00 2.7 -- -- -- -- 0 -- -- 81
2019-04-11 02:00:00 3 -- -- -- -- 0 -- -- 82
2019-04-11 01:00:00 3.3 -- -- -- -- 0 -- -- 81
2019-04-11 00:00:00 4 -- -- -- -- 0 -- -- 81
2019-04-10 23:00:00 4.4 -- -- -- -- 0 -- -- 81
2019-04-10 22:00:00 2.2 -- -- -- -- 0 -- -- 84
2019-04-10 21:00:00 4.5 -- -- -- -- 0 -- -- 74
2019-04-10 20:00:00 4.5 -- -- -- -- 0 -- -- 74
2019-04-10 19:00:00 4.9 -- -- -- -- 0 -- -- 72
2019-04-10 18:00:00 6.9 -- -- -- -- 0 -- -- 57
2019-04-10 17:00:00 6.4 -- -- -- -- 0 -- -- 61
2019-04-10 16:00:00 6.7 -- -- -- -- 0 -- -- 63
2019-04-10 15:00:00 6.1 -- -- -- -- 0 -- -- 67
2019-04-10 14:00:00 6.2 -- -- -- -- 0 -- -- 55
2019-04-10 13:00:00 7.2 -- -- -- -- 0 -- -- 56
2019-04-10 12:00:00 6 -- -- -- -- 0 -- -- 59
2019-04-10 11:00:00 5.5 -- -- -- -- 0 -- -- 60
2019-04-10 10:00:00 5.2 -- -- -- -- 0 -- -- 66
2019-04-10 09:00:00 4.2 -- -- -- -- 0 -- -- 70
2019-04-10 08:00:00 3.4 -- -- -- -- 0 -- -- 73
2019-04-10 07:00:00 3.4 -- -- -- -- 0 -- -- 73
2019-04-10 06:00:00 3.7 -- -- -- -- 0 -- -- 71
2019-04-10 05:00:00 3.8 -- -- -- -- 0 -- -- 70
2019-04-10 04:00:00 3.9 -- -- -- -- 0 -- -- 73
2019-04-10 03:00:00 3.9 -- -- -- -- 0 -- -- 75
2019-04-10 02:00:00 4.3 -- -- -- -- 0 -- -- 74
2019-04-10 01:00:00 4 -- -- -- -- 0.1 -- -- 76
2019-04-10 00:00:00 3.5 -- -- -- -- 0 -- -- 78
2019-04-09 23:00:00 3.9 -- -- -- -- 0 -- -- 74
2019-04-09 22:00:00 4.3 -- -- -- -- 0 -- -- 69
2019-04-09 21:00:00 5.1 -- -- -- -- 0 -- -- 64
2019-04-09 20:00:00 6 -- -- -- -- 0 -- -- 60
2019-04-09 19:00:00 6.3 -- -- -- -- 0 -- -- 58
2019-04-09 18:00:00 7.5 -- -- -- -- 0 -- -- 52
2019-04-09 17:00:00 9.4 -- -- -- -- 0 -- -- 34
2019-04-09 16:00:00 10.3 -- -- -- -- 0 -- -- 32
2019-04-09 15:00:00 10 -- -- -- -- 0 -- -- 33
2019-04-09 14:00:00 9.5 -- -- -- -- 0 -- -- 37
2019-04-09 13:00:00 9.1 -- -- -- -- 0 -- -- 41
2019-04-09 12:00:00 7.8 -- -- -- -- 0 -- -- 46
2019-04-09 11:00:00 6.3 -- -- -- -- 0 -- -- 52
2019-04-09 10:00:00 5.9 -- -- -- -- 0 -- -- 57
2019-04-09 09:00:00 4.6 -- -- -- -- 0 -- -- 65
2019-04-09 08:00:00 3.7 -- -- -- -- 0 -- -- 66
2019-04-09 07:00:00 3.8 -- -- -- -- 0 -- -- 70
2019-04-09 06:00:00 3.6 -- -- -- -- 0 -- -- 72
2019-04-09 05:00:00 4.3 -- -- -- -- 0 -- -- 71
2019-04-09 04:00:00 5 -- -- -- -- 0 -- -- 72
2019-04-09 03:00:00 6 -- -- -- -- 0.1 -- -- 68